sensor_id;sensor_type;location;lat;lon;timestamp;P1;durP1;ratioP1;P2;durP2;ratioP2
51814;SDS011;37874;53.158;6.766;2023-02-21T16:34:35;5.72;;;2.80;;
51814;SDS011;37874;53.158;6.766;2023-02-21T16:37:05;4.20;;;2.78;;
51814;SDS011;37874;53.158;6.766;2023-02-21T16:39:34;3.70;;;2.83;;
51814;SDS011;37874;53.158;6.766;2023-02-21T16:42:00;4.47;;;3.00;;
51814;SDS011;37874;53.158;6.766;2023-02-21T16:44:26;4.03;;;2.83;;
51814;SDS011;37874;53.158;6.766;2023-02-21T16:46:51;5.20;;;3.08;;
51814;SDS011;37874;53.158;6.766;2023-02-21T16:49:17;3.90;;;2.65;;
51814;SDS011;37874;53.158;6.766;2023-02-21T16:51:43;5.20;;;2.60;;
51814;SDS011;37874;53.158;6.766;2023-02-21T16:54:09;4.47;;;2.83;;
51814;SDS011;37874;53.158;6.766;2023-02-21T16:56:36;3.33;;;2.30;;
51814;SDS011;37874;53.158;6.766;2023-02-21T16:59:04;3.72;;;2.47;;
51814;SDS011;37874;53.158;6.766;2023-02-21T17:01:35;3.95;;;2.88;;
51814;SDS011;37874;53.158;6.766;2023-02-21T17:04:04;3.60;;;2.50;;
51814;SDS011;37874;53.158;6.766;2023-02-21T17:06:33;4.18;;;3.10;;
51814;SDS011;37874;53.158;6.766;2023-02-21T17:08:59;5.05;;;2.80;;
51814;SDS011;37874;53.158;6.766;2023-02-21T17:11:25;3.35;;;2.60;;
51814;SDS011;37874;53.158;6.766;2023-02-21T17:13:51;3.25;;;2.80;;
51814;SDS011;37874;53.158;6.766;2023-02-21T17:16:17;3.95;;;2.83;;
51814;SDS011;37874;53.158;6.766;2023-02-21T17:18:43;3.70;;;2.90;;
51814;SDS011;37874;53.158;6.766;2023-02-21T17:21:09;5.15;;;3.00;;
51814;SDS011;37874;53.158;6.766;2023-02-21T17:23:34;4.60;;;3.30;;
51814;SDS011;37874;53.158;6.766;2023-02-21T17:26:00;3.88;;;3.20;;
51814;SDS011;37874;53.158;6.766;2023-02-21T17:28:26;6.03;;;3.10;;
51814;SDS011;37874;53.158;6.766;2023-02-21T17:30:51;3.63;;;2.67;;
51814;SDS011;37874;53.158;6.766;2023-02-21T17:33:17;3.97;;;2.92;;
51814;SDS011;37874;53.158;6.766;2023-02-21T17:35:43;3.88;;;2.95;;
51814;SDS011;37874;53.158;6.766;2023-02-21T17:38:08;4.35;;;2.95;;
51814;SDS011;37874;53.158;6.766;2023-02-21T17:40:34;6.20;;;2.88;;
51814;SDS011;37874;53.158;6.766;2023-02-21T17:43:00;5.75;;;3.15;;
51814;SDS011;37874;53.158;6.766;2023-02-21T17:45:25;3.78;;;2.70;;
51814;SDS011;37874;53.158;6.766;2023-02-21T17:47:51;4.28;;;2.92;;
51814;SDS011;37874;53.158;6.766;2023-02-21T17:50:18;4.68;;;2.90;;
51814;SDS011;37874;53.158;6.766;2023-02-21T17:52:44;3.90;;;2.75;;
51814;SDS011;37874;53.158;6.766;2023-02-21T17:55:11;5.57;;;2.97;;
51814;SDS011;37874;53.158;6.766;2023-02-21T17:57:43;4.30;;;2.92;;
51814;SDS011;37874;53.158;6.766;2023-02-21T18:00:17;4.20;;;2.90;;
51814;SDS011;37874;53.158;6.766;2023-02-21T18:02:51;4.30;;;3.05;;
51814;SDS011;37874;53.158;6.766;2023-02-21T18:05:18;5.32;;;3.40;;
51814;SDS011;37874;53.158;6.766;2023-02-21T18:07:45;3.58;;;2.63;;
51814;SDS011;37874;53.158;6.766;2023-02-21T18:10:16;5.97;;;2.67;;
51814;SDS011;37874;53.158;6.766;2023-02-21T18:12:43;4.07;;;2.75;;
51814;SDS011;37874;53.158;6.766;2023-02-21T18:15:09;5.32;;;2.58;;
51814;SDS011;37874;53.158;6.766;2023-02-21T18:17:35;3.60;;;2.70;;
51814;SDS011;37874;53.158;6.766;2023-02-21T18:20:02;4.63;;;2.97;;
51814;SDS011;37874;53.158;6.766;2023-02-21T18:22:28;4.68;;;2.90;;
51814;SDS011;37874;53.158;6.766;2023-02-21T18:24:54;5.85;;;3.00;;
51814;SDS011;37874;53.158;6.766;2023-02-21T18:27:20;6.60;;;3.03;;
51814;SDS011;37874;53.158;6.766;2023-02-21T18:29:45;5.43;;;3.08;;
51814;SDS011;37874;53.158;6.766;2023-02-21T18:32:11;3.72;;;3.03;;
51814;SDS011;37874;53.158;6.766;2023-02-21T18:34:37;5.95;;;3.20;;
51814;SDS011;37874;53.158;6.766;2023-02-21T18:37:03;5.05;;;3.05;;
51814;SDS011;37874;53.158;6.766;2023-02-21T18:39:28;6.03;;;3.10;;
51814;SDS011;37874;53.158;6.766;2023-02-21T18:41:54;4.68;;;3.03;;
51814;SDS011;37874;53.158;6.766;2023-02-21T18:44:19;5.38;;;3.10;;
51814;SDS011;37874;53.158;6.766;2023-02-21T18:46:52;5.00;;;2.92;;
51814;SDS011;37874;53.158;6.766;2023-02-21T18:49:20;3.97;;;3.00;;
51814;SDS011;37874;53.158;6.766;2023-02-21T18:51:46;4.88;;;3.08;;
51814;SDS011;37874;53.158;6.766;2023-02-21T18:54:12;4.15;;;3.05;;
51814;SDS011;37874;53.158;6.766;2023-02-21T18:56:37;5.03;;;3.38;;
51814;SDS011;37874;53.158;6.766;2023-02-21T18:59:08;5.43;;;3.33;;
51814;SDS011;37874;53.158;6.766;2023-02-21T19:01:34;3.70;;;3.13;;
51814;SDS011;37874;53.158;6.766;2023-02-21T19:04:00;4.47;;;2.97;;
51814;SDS011;37874;53.158;6.766;2023-02-21T19:06:27;4.93;;;2.90;;
51814;SDS011;37874;53.158;6.766;2023-02-21T19:08:53;5.43;;;3.03;;
51814;SDS011;37874;53.158;6.766;2023-02-21T19:11:18;4.63;;;3.15;;
51814;SDS011;37874;53.158;6.766;2023-02-21T19:13:44;4.55;;;2.85;;
51814;SDS011;37874;53.158;6.766;2023-02-21T19:16:13;4.30;;;3.33;;
51814;SDS011;37874;53.158;6.766;2023-02-21T19:18:39;4.22;;;3.03;;
51814;SDS011;37874;53.158;6.766;2023-02-21T19:21:05;3.60;;;2.45;;
51814;SDS011;37874;53.158;6.766;2023-02-21T19:23:36;4.03;;;3.28;;
51814;SDS011;37874;53.158;6.766;2023-02-21T19:26:05;5.18;;;2.88;;
51814;SDS011;37874;53.158;6.766;2023-02-21T19:28:32;4.70;;;3.13;;
51814;SDS011;37874;53.158;6.766;2023-02-21T19:30:57;3.80;;;3.00;;
51814;SDS011;37874;53.158;6.766;2023-02-21T19:33:23;5.88;;;3.03;;
51814;SDS011;37874;53.158;6.766;2023-02-21T19:35:49;4.18;;;2.95;;
51814;SDS011;37874;53.158;6.766;2023-02-21T19:38:15;3.90;;;2.92;;
51814;SDS011;37874;53.158;6.766;2023-02-21T19:40:41;5.22;;;3.20;;
51814;SDS011;37874;53.158;6.766;2023-02-21T19:43:06;5.07;;;3.38;;
51814;SDS011;37874;53.158;6.766;2023-02-21T19:45:32;3.80;;;3.10;;
51814;SDS011;37874;53.158;6.766;2023-02-21T19:47:58;3.72;;;2.97;;
51814;SDS011;37874;53.158;6.766;2023-02-21T19:50:24;4.13;;;2.92;;
51814;SDS011;37874;53.158;6.766;2023-02-21T19:52:50;4.50;;;3.67;;
51814;SDS011;37874;53.158;6.766;2023-02-21T19:55:18;4.30;;;3.17;;
51814;SDS011;37874;53.158;6.766;2023-02-21T19:57:44;5.10;;;3.10;;
51814;SDS011;37874;53.158;6.766;2023-02-21T20:00:09;4.35;;;2.78;;
51814;SDS011;37874;53.158;6.766;2023-02-21T20:02:36;4.18;;;2.95;;
51814;SDS011;37874;53.158;6.766;2023-02-21T20:05:01;4.80;;;3.05;;
51814;SDS011;37874;53.158;6.766;2023-02-21T20:07:27;6.03;;;3.17;;
51814;SDS011;37874;53.158;6.766;2023-02-21T20:09:53;6.85;;;2.97;;
51814;SDS011;37874;53.158;6.766;2023-02-21T20:12:18;7.85;;;2.92;;
51814;SDS011;37874;53.158;6.766;2023-02-21T20:14:47;3.45;;;2.80;;
51814;SDS011;37874;53.158;6.766;2023-02-21T20:17:13;5.57;;;3.42;;
51814;SDS011;37874;53.158;6.766;2023-02-21T20:19:39;6.93;;;3.13;;
51814;SDS011;37874;53.158;6.766;2023-02-21T20:22:05;4.32;;;3.42;;
51814;SDS011;37874;53.158;6.766;2023-02-21T20:24:31;6.65;;;3.40;;
51814;SDS011;37874;53.158;6.766;2023-02-21T20:26:56;5.38;;;3.10;;
51814;SDS011;37874;53.158;6.766;2023-02-21T20:29:22;6.22;;;3.40;;
51814;SDS011;37874;53.158;6.766;2023-02-21T20:31:48;6.90;;;3.40;;
51814;SDS011;37874;53.158;6.766;2023-02-21T20:34:14;6.03;;;3.30;;
51814;SDS011;37874;53.158;6.766;2023-02-21T20:36:40;5.43;;;3.30;;
51814;SDS011;37874;53.158;6.766;2023-02-21T20:39:25;4.60;;;3.35;;
51814;SDS011;37874;53.158;6.766;2023-02-21T20:41:56;6.22;;;3.05;;
51814;SDS011;37874;53.158;6.766;2023-02-21T20:44:24;4.57;;;3.28;;
51814;SDS011;37874;53.158;6.766;2023-02-21T20:46:51;4.30;;;3.10;;
51814;SDS011;37874;53.158;6.766;2023-02-21T20:49:17;3.95;;;2.90;;
51814;SDS011;37874;53.158;6.766;2023-02-21T20:51:45;7.72;;;3.00;;
51814;SDS011;37874;53.158;6.766;2023-02-21T20:54:16;4.35;;;2.95;;
51814;SDS011;37874;53.158;6.766;2023-02-21T20:56:46;5.55;;;3.28;;
51814;SDS011;37874;53.158;6.766;2023-02-21T20:59:22;4.78;;;3.38;;
51814;SDS011;37874;53.158;6.766;2023-02-21T21:01:52;4.38;;;3.10;;
51814;SDS011;37874;53.158;6.766;2023-02-21T21:04:23;4.95;;;3.38;;
51814;SDS011;37874;53.158;6.766;2023-02-21T21:06:54;5.22;;;3.33;;
51814;SDS011;37874;53.158;6.766;2023-02-21T21:09:20;3.95;;;2.88;;
51814;SDS011;37874;53.158;6.766;2023-02-21T21:11:53;4.07;;;2.75;;
51814;SDS011;37874;53.158;6.766;2023-02-21T21:14:25;4.47;;;3.35;;
51814;SDS011;37874;53.158;6.766;2023-02-21T21:16:51;4.75;;;2.90;;
51814;SDS011;37874;53.158;6.766;2023-02-21T21:19:16;5.28;;;3.35;;
51814;SDS011;37874;53.158;6.766;2023-02-21T21:21:42;5.15;;;3.15;;
51814;SDS011;37874;53.158;6.766;2023-02-21T21:24:08;3.78;;;2.80;;
51814;SDS011;37874;53.158;6.766;2023-02-21T21:26:35;4.65;;;3.67;;
51814;SDS011;37874;53.158;6.766;2023-02-21T21:29:08;4.28;;;3.30;;
51814;SDS011;37874;53.158;6.766;2023-02-21T21:31:33;5.20;;;3.40;;
51814;SDS011;37874;53.158;6.766;2023-02-21T21:33:59;3.75;;;3.15;;
51814;SDS011;37874;53.158;6.766;2023-02-21T21:36:24;6.10;;;3.33;;
51814;SDS011;37874;53.158;6.766;2023-02-21T21:38:50;6.82;;;3.80;;
51814;SDS011;37874;53.158;6.766;2023-02-21T21:41:16;6.05;;;3.88;;
51814;SDS011;37874;53.158;6.766;2023-02-21T21:43:42;4.70;;;3.30;;
51814;SDS011;37874;53.158;6.766;2023-02-21T21:46:10;4.80;;;3.45;;
51814;SDS011;37874;53.158;6.766;2023-02-21T21:48:40;6.55;;;3.63;;
51814;SDS011;37874;53.158;6.766;2023-02-21T21:51:07;5.00;;;3.55;;
51814;SDS011;37874;53.158;6.766;2023-02-21T21:53:35;4.10;;;3.30;;
51814;SDS011;37874;53.158;6.766;2023-02-21T21:56:04;4.78;;;3.63;;
51814;SDS011;37874;53.158;6.766;2023-02-21T21:58:31;4.57;;;3.60;;
51814;SDS011;37874;53.158;6.766;2023-02-21T22:01:00;4.90;;;4.20;;
51814;SDS011;37874;53.158;6.766;2023-02-21T22:03:26;5.57;;;3.88;;
51814;SDS011;37874;53.158;6.766;2023-02-21T22:05:53;4.07;;;3.22;;
51814;SDS011;37874;53.158;6.766;2023-02-21T22:08:24;4.13;;;3.30;;
51814;SDS011;37874;53.158;6.766;2023-02-21T22:10:51;3.78;;;3.15;;
51814;SDS011;37874;53.158;6.766;2023-02-21T22:13:16;4.75;;;3.17;;
51814;SDS011;37874;53.158;6.766;2023-02-21T22:15:44;4.63;;;3.47;;
51814;SDS011;37874;53.158;6.766;2023-02-21T22:18:11;4.43;;;3.33;;
51814;SDS011;37874;53.158;6.766;2023-02-21T22:20:40;4.40;;;3.25;;
51814;SDS011;37874;53.158;6.766;2023-02-21T22:23:06;4.28;;;3.30;;
51814;SDS011;37874;53.158;6.766;2023-02-21T22:25:35;4.50;;;3.60;;
51814;SDS011;37874;53.158;6.766;2023-02-21T22:28:03;5.05;;;4.07;;
51814;SDS011;37874;53.158;6.766;2023-02-21T22:30:33;5.30;;;3.70;;
51814;SDS011;37874;53.158;6.766;2023-02-21T22:33:01;4.47;;;3.45;;
51814;SDS011;37874;53.158;6.766;2023-02-21T22:35:27;5.18;;;3.55;;
51814;SDS011;37874;53.158;6.766;2023-02-21T22:37:54;4.68;;;3.55;;
51814;SDS011;37874;53.158;6.766;2023-02-21T22:40:22;4.45;;;3.63;;
51814;SDS011;37874;53.158;6.766;2023-02-21T22:42:50;4.82;;;3.53;;
51814;SDS011;37874;53.158;6.766;2023-02-21T22:45:17;4.57;;;3.58;;
51814;SDS011;37874;53.158;6.766;2023-02-21T22:47:43;4.82;;;3.70;;
51814;SDS011;37874;53.158;6.766;2023-02-21T22:50:10;5.00;;;3.80;;
51814;SDS011;37874;53.158;6.766;2023-02-21T22:52:39;5.28;;;3.65;;
51814;SDS011;37874;53.158;6.766;2023-02-21T22:55:05;5.40;;;4.03;;
51814;SDS011;37874;53.158;6.766;2023-02-21T22:57:31;5.45;;;3.60;;
51814;SDS011;37874;53.158;6.766;2023-02-21T22:59:57;5.22;;;3.58;;
51814;SDS011;37874;53.158;6.766;2023-02-21T23:02:23;5.40;;;3.33;;
51814;SDS011;37874;53.158;6.766;2023-02-21T23:04:49;6.03;;;3.70;;
51814;SDS011;37874;53.158;6.766;2023-02-21T23:07:15;5.05;;;3.42;;
51814;SDS011;37874;53.158;6.766;2023-02-21T23:09:41;5.07;;;3.70;;
51814;SDS011;37874;53.158;6.766;2023-02-21T23:12:08;6.50;;;3.72;;
51814;SDS011;37874;53.158;6.766;2023-02-21T23:14:34;6.53;;;3.75;;
51814;SDS011;37874;53.158;6.766;2023-02-21T23:17:00;5.78;;;3.30;;
51814;SDS011;37874;53.158;6.766;2023-02-21T23:19:26;4.75;;;3.55;;
51814;SDS011;37874;53.158;6.766;2023-02-21T23:21:54;4.50;;;3.70;;
51814;SDS011;37874;53.158;6.766;2023-02-21T23:24:23;7.20;;;3.60;;
51814;SDS011;37874;53.158;6.766;2023-02-21T23:26:49;5.15;;;3.70;;
51814;SDS011;37874;53.158;6.766;2023-02-21T23:29:17;5.25;;;3.67;;
51814;SDS011;37874;53.158;6.766;2023-02-21T23:31:44;5.63;;;3.80;;
51814;SDS011;37874;53.158;6.766;2023-02-21T23:34:11;4.55;;;3.38;;
51814;SDS011;37874;53.158;6.766;2023-02-21T23:36:37;4.93;;;3.40;;
51814;SDS011;37874;53.158;6.766;2023-02-21T23:39:10;4.93;;;3.50;;
51814;SDS011;37874;53.158;6.766;2023-02-21T23:41:39;5.10;;;3.28;;
51814;SDS011;37874;53.158;6.766;2023-02-21T23:44:09;5.47;;;3.80;;
51814;SDS011;37874;53.158;6.766;2023-02-21T23:46:37;5.03;;;3.80;;
51814;SDS011;37874;53.158;6.766;2023-02-21T23:49:04;5.13;;;3.60;;
51814;SDS011;37874;53.158;6.766;2023-02-21T23:51:31;6.47;;;3.70;;
51814;SDS011;37874;53.158;6.766;2023-02-21T23:53:57;5.15;;;3.65;;
51814;SDS011;37874;53.158;6.766;2023-02-21T23:56:23;5.15;;;3.78;;
51814;SDS011;37874;53.158;6.766;2023-02-21T23:58:48;5.38;;;3.67;;
